Time;durP1;ratioP1;P1;durP2;ratioP2;P2;SDS_P1;SDS_P2;PMS_P1;PMS_P2;Temp;Humidity;BMP_temperature;BMP_pressure;BME280_temperature;BME280_humidity;BME280_pressure;Samples;Min_cycle;Max_cycle;Signal;HPM_P1;HPM_P2
2024/01/26 00:00:32;;;;;;;21.45;12.43;;;;;;;5.47;85.60;93713.25;2034592;70;20147;-79
2024/01/26 00:02:58;;;;;;;19.25;12.07;;;;;;;5.74;84.94;93710.91;2034348;70;20152;-80
2024/01/26 00:05:23;;;;;;;24.02;13.35;;;;;;;5.51;84.72;93721.28;2034915;70;20714;-80
2024/01/26 00:07:49;;;;;;;21.98;13.05;;;;;;;5.44;86.00;93724.78;2032364;70;20200;-81
2024/01/26 00:10:15;;;;;;;21.05;12.10;;;;;;;5.67;84.51;93719.25;2033475;70;20564;-81
2024/01/26 00:12:41;;;;;;;21.70;11.52;;;;;;;5.70;84.46;93709.78;2035053;70;20137;-80
2024/01/26 00:15:07;;;;;;;19.48;11.60;;;;;;;5.69;83.96;93716.66;2035223;70;20220;-80
2024/01/26 00:17:33;;;;;;;18.33;11.68;;;;;;;5.74;84.02;93704.56;2034784;70;20164;-79
2024/01/26 00:19:58;;;;;;;15.98;10.82;;;;;;;5.71;84.26;93700.09;2032034;70;20144;-79
2024/01/26 00:22:24;;;;;;;19.58;11.15;;;;;;;5.65;84.67;93707.91;2035240;70;20163;-80
2024/01/26 00:24:50;;;;;;;19.98;11.98;;;;;;;5.29;86.01;93705.91;2032425;70;20273;-79
2024/01/26 00:27:16;;;;;;;18.10;10.70;;;;;;;5.54;85.45;93706.16;2033516;70;20243;-79
2024/01/26 00:29:43;;;;;;;24.27;11.80;;;;;;;5.70;84.77;93704.94;2030008;70;20144;-80
2024/01/26 00:32:09;;;;;;;16.80;10.18;;;;;;;5.66;84.49;93695.41;2032084;70;20152;-79
2024/01/26 00:34:35;;;;;;;19.35;11.13;;;;;;;5.68;84.67;93703.97;2031753;70;20525;-78
2024/01/26 00:37:03;;;;;;;13.77;9.00;;;;;;;5.71;84.72;93698.03;2033832;70;20149;-79
2024/01/26 00:39:29;;;;;;;14.63;9.45;;;;;;;5.64;85.28;93698.78;2035067;70;20147;-80
2024/01/26 00:41:54;;;;;;;12.77;8.43;;;;;;;5.66;85.55;93693.38;2035181;70;20175;-80
2024/01/26 00:44:21;;;;;;;14.00;9.10;;;;;;;5.23;85.91;93689.31;2035205;70;20167;-81
2024/01/26 00:46:48;;;;;;;13.73;9.15;;;;;;;5.46;85.94;93686.63;2037421;70;20156;-80
2024/01/26 00:49:13;;;;;;;14.23;8.85;;;;;;;5.62;84.74;93687.41;2034943;70;20592;-81
2024/01/26 00:51:39;;;;;;;13.75;8.95;;;;;;;5.66;84.53;93690.56;2035352;70;20144;-81
2024/01/26 00:54:05;;;;;;;13.77;8.70;;;;;;;5.70;84.42;93693.75;2035250;70;20195;-80
2024/01/26 00:56:31;;;;;;;13.80;8.63;;;;;;;5.37;85.98;93686.41;2035117;70;20206;-79
2024/01/26 00:58:57;;;;;;;11.75;7.97;;;;;;;5.54;85.62;93681.03;2035290;70;20179;-79
2024/01/26 01:01:23;;;;;;;13.45;8.18;;;;;;;5.47;86.12;93690.16;2031600;70;20515;-81
2024/01/26 01:03:49;;;;;;;13.05;7.88;;;;;;;5.58;85.15;93693.34;2035143;70;20216;-79
2024/01/26 01:06:16;;;;;;;11.43;8.07;;;;;;;5.60;84.82;93704.72;2031995;70;20191;-78
2024/01/26 01:08:42;;;;;;;14.82;7.85;;;;;;;5.58;84.53;93684.22;2035206;70;20160;-79
2024/01/26 01:11:09;;;;;;;12.10;8.05;;;;;;;5.19;85.80;93697.31;2035157;70;20148;-80
2024/01/26 01:13:34;;;;;;;13.63;8.05;;;;;;;5.40;85.56;93699.25;2035236;70;20163;-80
2024/01/26 01:16:00;;;;;;;13.80;8.18;;;;;;;5.55;84.60;93702.09;2034826;70;20144;-81
2024/01/26 01:18:26;;;;;;;11.93;7.72;;;;;;;5.54;84.16;93698.56;2032030;70;20236;-81
2024/01/26 01:20:52;;;;;;;12.43;7.65;;;;;;;5.50;84.29;93687.00;2035300;70;20188;-80
2024/01/26 01:23:18;;;;;;;11.43;7.15;;;;;;;5.25;84.29;93688.78;2034946;70;20309;-80
2024/01/26 01:25:43;;;;;;;12.10;7.93;;;;;;;5.38;85.10;93682.31;2031285;70;20615;-79
2024/01/26 01:28:09;;;;;;;13.68;7.70;;;;;;;5.33;85.06;93687.50;2034973;70;20163;-80
2024/01/26 01:30:35;;;;;;;11.82;7.57;;;;;;;5.31;84.71;93683.75;2034362;70;20175;-80
2024/01/26 01:33:00;;;;;;;12.00;7.40;;;;;;;5.42;84.50;93699.44;2034647;70;20151;-79
2024/01/26 01:35:26;;;;;;;11.40;7.35;;;;;;;5.45;83.94;93693.50;2034947;70;20645;-80
2024/01/26 01:37:51;;;;;;;12.35;7.55;;;;;;;5.41;83.87;93692.38;2031811;70;20166;-79
2024/01/26 01:40:17;;;;;;;11.20;7.30;;;;;;;5.41;84.29;93689.59;2031595;70;20160;-79
2024/01/26 01:42:43;;;;;;;12.27;7.85;;;;;;;4.73;85.27;93669.19;2035007;70;20143;-81
2024/01/26 01:45:14;;;;;;;11.50;7.78;;;;;;;5.10;84.85;93676.25;2034932;70;20217;-82
2024/01/26 01:47:42;;;;;;;10.55;7.18;;;;;;;5.16;84.01;93666.97;2034350;70;20163;-81
2024/01/26 01:50:08;;;;;;;11.10;7.32;;;;;;;5.19;84.27;93679.81;2031651;70;20227;-80
2024/01/26 01:52:40;;;;;;;14.10;7.32;;;;;;;5.19;83.91;93679.81;2031405;70;20155;-78
2024/01/26 01:55:08;;;;;;;11.73;7.45;;;;;;;5.20;83.76;93675.72;2034570;70;20140;-78
2024/01/26 01:57:41;;;;;;;12.70;7.38;;;;;;;4.51;86.54;93670.53;2034332;70;20187;-79
2024/01/26 02:00:17;;;;;;;12.10;7.40;;;;;;;4.85;86.04;93684.28;2034608;70;20661;-79
2024/01/26 02:02:45;;;;;;;10.90;7.10;;;;;;;4.99;85.11;93696.09;2034930;70;20155;-80
2024/01/26 02:05:11;;;;;;;11.43;7.38;;;;;;;5.01;85.34;93695.56;2034870;70;20150;-80
2024/01/26 02:07:37;;;;;;;11.27;6.80;;;;;;;5.06;85.28;93712.13;2034858;70;20158;-80
2024/01/26 02:10:04;;;;;;;12.23;6.97;;;;;;;5.13;84.72;93699.50;2035105;70;20206;-80
2024/01/26 02:12:29;;;;;;;10.07;6.65;;;;;;;5.15;84.24;93694.13;2038167;70;20214;-80
2024/01/26 02:14:56;;;;;;;10.32;6.43;;;;;;;5.10;84.84;93689.47;2037960;70;20191;-81
2024/01/26 02:17:30;;;;;;;9.93;6.72;;;;;;;5.19;84.46;93668.66;2033927;70;20144;-79
2024/01/26 02:19:57;;;;;;;10.30;6.28;;;;;;;5.26;84.45;93671.44;2031434;70;20227;-80
2024/01/26 02:22:23;;;;;;;9.45;6.28;;;;;;;5.31;83.96;93669.78;2031236;70;20186;-79
2024/01/26 02:24:49;;;;;;;11.20;6.18;;;;;;;5.21;83.96;93664.00;2031448;70;20160;-81
2024/01/26 02:27:14;;;;;;;10.88;6.40;;;;;;;5.23;83.55;93663.47;2033363;70;20739;-81
2024/01/26 02:29:40;;;;;;;12.50;5.88;;;;;;;5.20;84.01;93656.19;2034553;70;20667;-81
2024/01/26 02:32:09;;;;;;;9.55;5.45;;;;;;;5.10;84.05;93656.69;2035029;70;20164;-81
2024/01/26 02:34:36;;;;;;;9.98;5.70;;;;;;;5.06;84.48;93647.94;2035072;70;20514;-81
2024/01/26 02:37:01;;;;;;;8.23;5.30;;;;;;;5.03;84.21;93648.28;2035082;70;20147;-80
2024/01/26 02:39:28;;;;;;;7.65;4.80;;;;;;;5.02;84.50;93649.59;2034962;70;20148;-81
2024/01/26 02:41:55;;;;;;;6.60;4.55;;;;;;;5.05;84.31;93665.25;2031062;70;20531;-81
2024/01/26 02:44:21;;;;;;;6.22;4.70;;;;;;;4.89;84.66;93658.09;2030757;70;20144;-80
2024/01/26 02:46:47;;;;;;;7.60;4.97;;;;;;;4.97;84.55;93667.25;2031411;70;20152;-80
2024/01/26 02:49:14;;;;;;;8.57;5.32;;;;;;;4.77;84.85;93660.47;2031307;70;20163;-80
2024/01/26 02:51:39;;;;;;;10.18;6.80;;;;;;;4.65;85.25;93681.59;2031264;70;20605;-80
2024/01/26 02:54:05;;;;;;;9.82;6.32;;;;;;;4.64;86.35;93669.69;2031103;70;20180;-81
2024/01/26 02:56:31;;;;;;;9.45;5.95;;;;;;;4.78;85.19;93675.91;2031359;70;20239;-81
2024/01/26 02:58:56;;;;;;;8.70;5.75;;;;;;;4.70;85.01;93675.09;2031336;70;20236;-80
2024/01/26 03:01:22;;;;;;;9.07;5.90;;;;;;;4.95;84.41;93683.78;2028322;70;20609;-79
2024/01/26 03:03:47;;;;;;;10.05;5.70;;;;;;;5.02;84.66;93692.19;2031471;70;20171;-80
2024/01/26 03:06:13;;;;;;;10.45;5.60;;;;;;;5.00;84.45;93696.84;2030880;70;20148;-81
2024/01/26 03:08:39;;;;;;;8.75;5.80;;;;;;;4.98;84.30;93694.59;2031386;70;20175;-81
2024/01/26 03:11:05;;;;;;;11.52;5.88;;;;;;;5.08;84.07;93695.56;2031086;70;20171;-82
2024/01/26 03:13:31;;;;;;;8.40;5.60;;;;;;;5.08;84.49;93692.03;2031494;70;20152;-79
2024/01/26 03:15:57;;;;;;;8.48;5.38;;;;;;;5.09;84.18;93690.75;2031395;70;20240;-81
2024/01/26 03:18:22;;;;;;;7.38;4.90;;;;;;;5.15;84.43;93687.81;2031351;70;20136;-81
2024/01/26 03:20:48;;;;;;;7.75;5.38;;;;;;;5.07;84.48;93696.13;2031432;70;20151;-81
2024/01/26 03:23:14;;;;;;;9.55;5.53;;;;;;;5.08;84.63;93695.56;2031412;70;20148;-82
2024/01/26 03:25:40;;;;;;;7.65;5.65;;;;;;;4.90;84.57;93695.84;2031265;70;20180;-81
2024/01/26 03:28:07;;;;;;;8.18;5.63;;;;;;;5.04;84.51;93700.78;2031359;70;20168;-81
2024/01/26 03:30:34;;;;;;;9.02;5.55;;;;;;;5.01;84.29;93701.88;2031316;70;20137;-80
2024/01/26 03:32:59;;;;;;;9.30;5.18;;;;;;;4.97;84.79;93703.53;2031360;70;20167;-81
2024/01/26 03:35:26;;;;;;;8.05;5.40;;;;;;;5.06;84.28;93711.41;2031242;70;20283;-81
2024/01/26 03:37:52;;;;;;;8.20;5.55;;;;;;;5.08;84.56;93715.13;2031289;70;20152;-81
2024/01/26 03:40:17;;;;;;;7.30;5.30;;;;;;;5.11;83.93;93710.47;2032364;70;20224;-81
2024/01/26 03:42:43;;;;;;;8.10;5.38;;;;;;;5.12;84.07;93714.75;2034872;70;20128;-81
2024/01/26 03:45:09;;;;;;;8.57;5.43;;;;;;;5.15;83.85;93726.88;2035415;70;20700;-79
2024/01/26 03:47:35;;;;;;;9.82;5.30;;;;;;;5.30;83.90;93733.28;2035460;70;20172;-81
2024/01/26 03:50:01;;;;;;;7.40;5.32;;;;;;;5.25;83.80;93725.06;2035414;70;20140;-80
2024/01/26 03:52:26;;;;;;;8.77;5.50;;;;;;;5.30;83.86;93743.69;2035460;70;20156;-81
2024/01/26 03:54:53;;;;;;;8.35;4.95;;;;;;;5.34;83.55;93744.84;2032374;70;20148;-82
2024/01/26 03:57:19;;;;;;;7.53;4.85;;;;;;;5.39;83.50;93739.66;2035291;70;20156;-79
2024/01/26 03:59:44;;;;;;;7.70;5.50;;;;;;;5.21;83.89;93753.34;2035455;70;20159;-81
2024/01/26 04:02:10;;;;;;;7.55;5.25;;;;;;;5.37;82.59;93773.72;2035676;70;20182;-79
2024/01/26 04:04:37;;;;;;;7.63;5.18;;;;;;;5.07;84.33;93765.91;2035559;70;20231;-81
2024/01/26 04:07:03;;;;;;;10.98;5.60;;;;;;;5.14;84.08;93770.06;2035393;70;20222;-82
2024/01/26 04:09:28;;;;;;;8.38;5.30;;;;;;;5.31;83.54;93773.09;2035505;70;20144;-81
2024/01/26 04:11:54;;;;;;;7.53;5.07;;;;;;;5.04;84.38;93767.78;2038417;70;20158;-81
2024/01/26 04:14:20;;;;;;;7.57;4.97;;;;;;;5.22;83.88;93757.63;2038705;70;20163;-81
2024/01/26 04:16:45;;;;;;;7.50;5.38;;;;;;;5.28;83.81;93771.44;2036982;70;20195;-81
2024/01/26 04:19:11;;;;;;;8.52;5.55;;;;;;;5.23;83.71;93761.91;2032161;70;20577;-81
2024/01/26 04:21:36;;;;;;;8.20;5.50;;;;;;;5.22;84.00;93757.63;2032256;70;20140;-81
2024/01/26 04:24:02;;;;;;;10.65;5.63;;;;;;;5.25;83.98;93750.94;2025973;70;20607;-81
2024/01/26 04:26:28;;;;;;;9.38;5.85;;;;;;;5.38;83.69;93774.47;2032388;70;20220;-81
2024/01/26 04:28:54;;;;;;;7.93;5.28;;;;;;;5.40;83.72;93777.44;2035335;70;20144;-80
2024/01/26 04:31:22;;;;;;;8.30;5.15;;;;;;;5.28;83.88;93777.75;2035445;70;20616;-81
2024/01/26 04:33:48;;;;;;;9.00;5.60;;;;;;;4.96;85.21;93782.97;2035331;70;20595;-81
2024/01/26 04:36:13;;;;;;;10.95;5.70;;;;;;;4.92;85.48;93785.38;2035382;70;20156;-82
2024/01/26 04:38:39;;;;;;;10.70;5.13;;;;;;;5.03;85.09;93773.88;2035284;70;20152;-78
2024/01/26 04:41:05;;;;;;;11.88;5.57;;;;;;;5.27;84.23;93789.50;2031156;70;20175;-81
2024/01/26 04:43:31;;;;;;;9.63;5.20;;;;;;;5.25;84.36;93783.69;2031779;70;20152;-81
2024/01/26 04:45:56;;;;;;;8.95;4.97;;;;;;;5.27;84.50;93793.03;2031967;70;20180;-82
2024/01/26 04:48:22;;;;;;;10.25;5.72;;;;;;;5.30;84.28;93797.50;2031641;70;20141;-81
2024/01/26 04:50:47;;;;;;;10.40;5.75;;;;;;;5.37;84.13;93790.47;2031578;70;20509;-81
2024/01/26 04:53:15;;;;;;;11.25;5.90;;;;;;;4.76;84.36;93703.59;2031120;70;20160;-80
2024/01/26 04:55:41;;;;;;;9.15;6.20;;;;;;;5.39;84.29;93801.81;2031711;70;20187;-81
2024/01/26 04:58:07;;;;;;;8.00;5.78;;;;;;;5.43;84.48;93805.00;2033855;70;20167;-80
2024/01/26 05:00:32;;;;;;;9.18;5.85;;;;;;;5.52;82.90;93803.75;2031755;70;20152;-82
2024/01/26 05:02:58;;;;;;;8.85;5.90;;;;;;;5.17;84.64;93811.56;2031835;70;20156;-81
2024/01/26 05:05:24;;;;;;;7.93;5.78;;;;;;;5.20;85.58;93813.25;2031659;70;20696;-82
2024/01/26 05:07:50;;;;;;;10.77;5.95;;;;;;;5.34;84.69;93817.44;2031528;70;20144;-81
2024/01/26 05:10:15;;;;;;;9.60;5.80;;;;;;;5.39;84.59;93826.22;2031845;70;20548;-81
2024/01/26 05:12:41;;;;;;;7.63;5.90;;;;;;;5.41;84.49;93826.44;2031586;70;20272;-81
2024/01/26 05:15:11;;;;;;;9.82;5.82;;;;;;;5.43;84.29;93835.00;2031670;70;20249;-82
2024/01/26 05:17:38;;;;;;;7.93;5.50;;;;;;;5.41;84.70;93832.75;2031565;70;20673;-81
2024/01/26 05:20:10;;;;;;;9.02;6.35;;;;;;;5.06;85.78;93826.56;2031655;70;20151;-82
2024/01/26 05:22:36;;;;;;;10.23;5.88;;;;;;;5.12;86.03;93839.63;2031811;70;20156;-81
2024/01/26 05:25:02;;;;;;;8.80;5.90;;;;;;;5.06;86.18;93848.91;2031049;70;20688;-80
2024/01/26 05:27:28;;;;;;;12.80;6.18;;;;;;;5.30;85.94;93858.94;2031438;70;20160;-81
2024/01/26 05:29:55;;;;;;;10.98;5.95;;;;;;;5.40;84.90;93864.00;2031542;70;20160;-81
2024/01/26 05:32:20;;;;;;;11.43;5.88;;;;;;;5.40;84.81;93875.94;2028269;70;20174;-81
2024/01/26 05:34:46;;;;;;;10.63;6.10;;;;;;;5.43;84.88;93880.41;2031582;70;20605;-81
2024/01/26 05:37:12;;;;;;;9.70;5.85;;;;;;;5.46;85.06;93889.75;2031507;70;20148;-81
2024/01/26 05:39:38;;;;;;;11.32;5.75;;;;;;;5.41;84.94;93896.25;2031537;70;20610;-81
2024/01/26 05:42:04;;;;;;;9.30;6.20;;;;;;;5.35;85.03;93883.16;2031579;70;20152;-81
2024/01/26 05:44:30;;;;;;;8.75;5.90;;;;;;;5.33;84.69;93885.03;2031510;70;20148;-82
2024/01/26 05:46:56;;;;;;;9.88;6.13;;;;;;;5.41;85.14;93887.88;2031793;70;20183;-82
2024/01/26 05:49:23;;;;;;;9.40;6.53;;;;;;;5.43;85.26;93886.00;2028407;70;20175;-82
2024/01/26 05:51:49;;;;;;;10.70;7.05;;;;;;;5.50;84.61;93870.59;2031560;70;20595;-81
2024/01/26 05:54:14;;;;;;;13.40;6.65;;;;;;;5.58;84.54;93868.59;2031761;70;20160;-81
2024/01/26 05:56:43;;;;;;;8.43;5.68;;;;;;;5.62;83.48;93863.41;2031633;70;20220;-81
2024/01/26 05:59:08;;;;;;;10.30;6.55;;;;;;;5.63;83.52;93866.94;2031634;70;20604;-81
2024/01/26 06:01:35;;;;;;;11.30;6.45;;;;;;;5.58;84.29;93868.59;2031695;70;20136;-81
2024/01/26 06:04:01;;;;;;;11.32;7.40;;;;;;;5.54;84.77;93866.16;2034847;70;20179;-81
2024/01/26 06:06:27;;;;;;;9.90;6.95;;;;;;;5.56;84.77;93869.16;2034569;70;20156;-81
2024/01/26 06:08:52;;;;;;;11.73;7.43;;;;;;;5.62;84.32;93871.78;2031599;70;20626;-82
2024/01/26 06:11:20;;;;;;;11.52;7.57;;;;;;;5.43;85.62;93868.50;2031436;70;20153;-81
2024/01/26 06:13:46;;;;;;;10.48;7.07;;;;;;;5.25;87.55;93861.88;2031471;70;20207;-81
2024/01/26 06:16:13;;;;;;;13.52;8.20;;;;;;;5.28;86.79;93849.63;2030370;70;20275;-81
2024/01/26 06:18:39;;;;;;;14.45;8.20;;;;;;;5.06;88.33;93856.53;2031073;70;20175;-82
2024/01/26 06:21:05;;;;;;;13.57;8.13;;;;;;;5.31;87.87;93852.06;2030744;70;20140;-80
2024/01/26 06:23:30;;;;;;;14.00;7.85;;;;;;;5.39;86.99;93852.09;2030983;70;20566;-81
2024/01/26 06:25:56;;;;;;;12.05;7.60;;;;;;;5.47;85.83;93846.56;2030252;70;20203;-80
2024/01/26 06:28:22;;;;;;;11.18;7.43;;;;;;;5.43;86.70;93846.91;2030621;70;20838;-80
2024/01/26 06:30:47;;;;;;;12.63;7.68;;;;;;;5.53;86.48;93855.53;2030732;70;20212;-80
2024/01/26 06:33:13;;;;;;;12.65;7.65;;;;;;;5.46;86.94;93859.03;2031327;70;20339;-82
2024/01/26 06:35:38;;;;;;;13.95;8.10;;;;;;;5.65;86.25;93861.56;2027946;70;20627;-82
2024/01/26 06:38:04;;;;;;;11.98;7.15;;;;;;;5.51;86.95;93856.09;2030657;70;20167;-79
2024/01/26 06:40:30;;;;;;;10.70;6.53;;;;;;;5.49;87.07;93864.25;2032021;70;20620;-80
2024/01/26 06:42:57;;;;;;;11.15;7.03;;;;;;;5.66;86.16;93863.06;2037222;70;20152;-79
2024/01/26 06:45:23;;;;;;;10.52;6.40;;;;;;;5.65;86.25;93867.88;2035065;70;20262;-80
2024/01/26 06:47:49;;;;;;;10.68;6.90;;;;;;;5.51;87.81;93864.47;2035061;70;20220;-80
2024/01/26 06:50:15;;;;;;;14.60;7.93;;;;;;;5.33;88.43;93846.66;2034717;70;20616;-80
2024/01/26 06:52:40;;;;;;;20.25;9.80;;;;;;;5.26;89.72;93838.97;2034863;70;20152;-81
2024/01/26 06:55:06;;;;;;;17.50;8.57;;;;;;;5.62;87.87;93843.84;2034901;70;20198;-78
2024/01/26 06:57:32;;;;;;;12.55;7.38;;;;;;;5.50;88.17;93845.47;2034973;70;20167;-79
2024/01/26 06:59:57;;;;;;;10.38;6.50;;;;;;;5.73;86.87;93843.53;2031719;70;20144;-79
2024/01/26 07:02:23;;;;;;;9.65;5.75;;;;;;;5.80;85.86;93845.59;2035227;70;20610;-80
2024/01/26 07:04:49;;;;;;;9.50;5.55;;;;;;;5.83;86.63;93846.56;2034665;70;20148;-82
2024/01/26 07:07:15;;;;;;;9.95;5.60;;;;;;;5.86;86.09;93842.63;2034174;70;20224;-80
2024/01/26 07:09:40;;;;;;;9.43;5.65;;;;;;;5.84;86.04;93848.78;2034923;70;20489;-81
2024/01/26 07:12:06;;;;;;;8.60;5.20;;;;;;;5.93;85.55;93846.81;2034323;70;20148;-81
2024/01/26 07:14:32;;;;;;;8.05;5.00;;;;;;;5.61;88.14;93845.16;2034790;70;20676;-81
2024/01/26 07:16:58;;;;;;;9.15;5.90;;;;;;;5.80;86.71;93834.44;2034110;70;20691;-82
2024/01/26 07:19:23;;;;;;;8.60;5.20;;;;;;;6.05;85.37;93820.03;2034134;70;20236;-82
2024/01/26 07:21:49;;;;;;;8.05;5.25;;;;;;;5.96;87.05;93814.97;2033305;70;20154;-80
2024/01/26 07:24:14;;;;;;;11.15;6.63;;;;;;;6.02;85.98;93810.69;2030297;70;20643;-81
2024/01/26 07:26:41;;;;;;;10.75;6.20;;;;;;;5.81;86.46;93796.03;2033938;70;20160;-81
2024/01/26 07:29:06;;;;;;;8.07;4.60;;;;;;;5.84;86.91;93806.88;2034108;70;20200;-83
2024/01/26 07:31:32;;;;;;;6.40;3.92;;;;;;;6.03;87.37;93811.44;2034806;70;20140;-80
2024/01/26 07:33:59;;;;;;;6.28;3.83;;;;;;;6.23;85.34;93807.78;2034974;70;20593;-81
2024/01/26 07:36:25;;;;;;;12.20;6.13;;;;;;;6.21;84.87;93818.75;2035093;70;20583;-82
2024/01/26 07:38:50;;;;;;;11.65;6.32;;;;;;;6.21;85.35;93818.75;2034974;70;20156;-82
2024/01/26 07:41:16;;;;;;;14.48;7.80;;;;;;;6.22;85.06;93831.41;2032624;70;20179;-82
2024/01/26 07:43:41;;;;;;;16.23;8.57;;;;;;;5.71;86.71;93840.53;2031378;70;20144;-83
2024/01/26 07:46:07;;;;;;;16.05;8.55;;;;;;;5.96;86.46;93840.13;2031457;70;20164;-83
2024/01/26 07:48:33;;;;;;;15.68;8.13;;;;;;;6.24;84.92;93834.44;2031353;70;20169;-82
2024/01/26 07:50:58;;;;;;;12.98;7.30;;;;;;;6.20;84.62;93825.66;2031386;70;20267;-82
2024/01/26 07:53:24;;;;;;;14.05;8.20;;;;;;;6.27;84.28;93832.56;2030176;70;20148;-81
2024/01/26 07:55:50;;;;;;;14.93;8.02;;;;;;;6.25;84.90;93843.56;2031354;70;20141;-82
2024/01/26 07:58:16;;;;;;;11.93;7.18;;;;;;;6.51;84.47;93836.91;2031308;70;20319;-82
2024/01/26 08:00:42;;;;;;;10.98;6.70;;;;;;;6.62;84.10;93834.47;2031323;70;20164;-82
2024/01/26 08:03:07;;;;;;;8.25;5.05;;;;;;;6.67;84.38;93834.88;2031400;70;20160;-82
2024/01/26 08:05:33;;;;;;;8.70;4.18;;;;;;;6.80;84.24;93841.03;2031242;70;20264;-83
2024/01/26 08:07:59;;;;;;;12.15;6.25;;;;;;;6.59;84.02;93830.00;2031462;70;20151;-82
2024/01/26 08:10:24;;;;;;;23.65;11.05;;;;;;;6.67;83.85;93829.25;2034509;70;20531;-82
2024/01/26 08:12:51;;;;;;;18.58;9.70;;;;;;;6.60;83.99;93819.56;2034436;70;20641;-82
2024/01/26 08:15:16;;;;;;;26.75;12.82;;;;;;;6.68;83.97;93822.34;2034621;70;20168;-82
2024/01/26 08:17:42;;;;;;;22.98;11.40;;;;;;;6.97;82.86;93812.47;2033012;70;20253;-83
2024/01/26 08:20:08;;;;;;;23.42;10.75;;;;;;;7.08;82.88;93816.94;2031332;70;20162;-83
2024/01/26 08:22:34;;;;;;;19.90;9.13;;;;;;;7.07;82.51;93807.06;2031291;70;20585;-81
2024/01/26 08:25:00;;;;;;;8.10;4.40;;;;;;;7.00;82.66;93802.19;2031307;70;20154;-83
2024/01/26 08:27:26;;;;;;;6.72;4.15;;;;;;;7.06;82.18;93799.97;2031705;70;20155;-82
2024/01/26 08:29:52;;;;;;;7.78;3.95;;;;;;;7.11;82.03;93819.38;2031812;70;20148;-83
2024/01/26 08:32:18;;;;;;;6.28;4.28;;;;;;;7.10;82.49;93823.50;2032041;70;20145;-84
2024/01/26 08:34:45;;;;;;;11.38;4.95;;;;;;;6.79;83.07;93841.59;2032598;70;20154;-81
2024/01/26 08:37:11;;;;;;;12.60;7.00;;;;;;;6.73;85.13;93838.22;2031896;70;20228;-83
2024/01/26 08:39:37;;;;;;;9.85;6.00;;;;;;;7.00;83.79;93827.41;2031772;70;20620;-83
2024/01/26 08:42:03;;;;;;;7.43;5.15;;;;;;;7.01;83.39;93829.66;2031958;70;20171;-83
2024/01/26 08:44:30;;;;;;;9.75;6.20;;;;;;;7.38;84.22;93825.31;2035431;70;20140;-83
2024/01/26 08:46:56;;;;;;;11.23;5.57;;;;;;;7.39;83.67;93810.00;2034817;70;20271;-83
2024/01/26 08:49:22;;;;;;;9.80;6.25;;;;;;;7.56;82.30;93801.00;2031769;70;20212;-86
2024/01/26 08:51:47;;;;;;;14.35;9.20;;;;;;;7.03;85.04;93803.88;2031706;70;20569;-83
2024/01/26 08:54:13;;;;;;;12.07;7.80;;;;;;;8.06;84.24;93798.38;2031695;70;20259;-83
2024/01/26 08:56:42;;;;;;;11.82;8.18;;;;;;;8.81;85.74;93784.44;2031650;70;20220;-80
2024/01/26 08:59:09;;;;;;;12.02;7.25;;;;;;;9.08;81.63;93769.81;2031710;70;20175;-82
2024/01/26 09:01:35;;;;;;;12.15;7.00;;;;;;;9.22;80.58;93765.34;2031835;70;20157;-82
2024/01/26 09:04:01;;;;;;;10.85;6.38;;;;;;;8.62;80.88;93773.00;2031222;70;20144;-82
2024/01/26 09:06:27;;;;;;;8.82;6.25;;;;;;;8.61;79.01;93761.03;2035324;70;20152;-83
2024/01/26 09:08:52;;;;;;;9.18;6.13;;;;;;;9.52;78.87;93769.16;2031980;70;20211;-83
2024/01/26 09:11:18;;;;;;;7.95;5.22;;;;;;;8.93;78.31;93793.13;2028372;70;20128;-83
2024/01/26 09:13:44;;;;;;;8.10;4.55;;;;;;;9.48;78.19;93796.94;2031767;70;20149;-82
2024/01/26 09:16:11;;;;;;;7.60;5.15;;;;;;;9.87;77.81;93793.13;2031661;70;20588;-84
2024/01/26 09:18:37;;;;;;;6.45;5.00;;;;;;;9.82;76.33;93793.41;2031474;70;20172;-82
2024/01/26 09:21:03;;;;;;;8.90;6.00;;;;;;;10.51;77.50;93789.72;2031769;70;20167;-83
2024/01/26 09:23:28;;;;;;;8.55;5.85;;;;;;;10.57;76.04;93795.81;2031600;70;20139;-83
2024/01/26 09:25:54;;;;;;;6.90;5.22;;;;;;;10.73;73.69;93799.91;2031630;70;20155;-83
2024/01/26 09:28:19;;;;;;;7.72;5.72;;;;;;;10.65;72.40;93800.00;2031593;70;20213;-83
2024/01/26 09:30:45;;;;;;;9.38;4.90;;;;;;;10.30;72.62;93788.13;2031688;70;20150;-83
2024/01/26 09:33:10;;;;;;;7.95;5.55;;;;;;;10.67;72.92;93788.94;2031769;70;20616;-83
2024/01/26 09:35:36;;;;;;;9.27;5.90;;;;;;;10.74;71.41;93784.50;2031733;70;20168;-83
2024/01/26 09:38:02;;;;;;;9.95;5.13;;;;;;;11.12;71.79;93783.88;2031449;70;20144;-83
2024/01/26 09:40:28;;;;;;;8.85;5.70;;;;;;;11.96;71.68;93781.66;2031419;70;20156;-82
2024/01/26 09:42:53;;;;;;;6.82;5.10;;;;;;;11.76;68.26;93777.31;2031659;70;20137;-83
2024/01/26 09:45:20;;;;;;;7.65;5.35;;;;;;;12.02;68.49;93773.63;2034639;70;20607;-82
2024/01/26 09:47:51;;;;;;;6.30;4.43;;;;;;;11.33;67.89;93768.50;2031577;70;20198;-82
2024/01/26 09:50:21;;;;;;;7.57;4.78;;;;;;;11.88;68.59;93755.66;2030978;70;20156;-82
2024/01/26 09:52:47;;;;;;;5.70;3.88;;;;;;;12.28;67.28;93749.38;2031545;70;20148;-82
2024/01/26 09:55:14;;;;;;;8.02;5.57;;;;;;;12.80;66.53;93756.50;2031598;70;20212;-82
2024/01/26 09:57:42;;;;;;;6.13;4.03;;;;;;;12.10;66.42;93754.44;2033547;70;20164;-81
2024/01/26 10:00:10;;;;;;;6.45;3.67;;;;;;;12.11;66.08;93746.72;2031615;70;20176;-82
2024/01/26 10:02:37;;;;;;;5.32;4.00;;;;;;;12.52;66.84;93750.34;2031610;70;20169;-83
2024/01/26 10:05:03;;;;;;;6.88;4.20;;;;;;;12.58;66.04;93755.66;2031555;70;20140;-80
2024/01/26 10:07:28;;;;;;;5.65;3.90;;;;;;;12.12;66.54;93757.41;2031443;70;20148;-82
2024/01/26 10:09:55;;;;;;;4.60;3.97;;;;;;;12.98;67.03;93769.06;2031525;70;20157;-80
2024/01/26 10:12:21;;;;;;;7.43;5.60;;;;;;;13.17;64.65;93771.03;2031458;70;20148;-83
2024/01/26 10:14:46;;;;;;;7.90;4.45;;;;;;;14.01;63.62;93766.03;2034081;70;20168;-82
2024/01/26 10:17:17;;;;;;;6.78;3.80;;;;;;;13.54;62.19;93767.88;2034126;70;20156;-82
2024/01/26 10:19:43;;;;;;;5.32;3.60;;;;;;;13.66;61.58;93774.34;2031664;70;20267;-82
2024/01/26 10:22:09;;;;;;;3.83;2.90;;;;;;;14.17;61.45;93764.25;2031544;70;20653;-83
2024/01/26 10:24:34;;;;;;;4.68;3.15;;;;;;;13.63;59.51;93767.81;2031486;70;20145;-83
2024/01/26 10:27:00;;;;;;;5.78;3.75;;;;;;;13.01;62.57;93778.41;2031407;70;20139;-82
2024/01/26 10:29:26;;;;;;;6.05;4.40;;;;;;;13.70;61.05;93774.63;2031571;70;20657;-82
2024/01/26 10:31:52;;;;;;;4.07;3.35;;;;;;;13.60;62.13;93768.28;2031501;70;20129;-81
2024/01/26 10:34:18;;;;;;;4.70;3.30;;;;;;;14.79;59.93;93766.03;2028333;70;20205;-82
2024/01/26 10:36:48;;;;;;;3.97;3.22;;;;;;;15.36;58.21;93746.06;2031493;70;20627;-80
2024/01/26 10:39:24;;;;;;;3.92;3.17;;;;;;;16.14;57.07;93751.34;2028188;70;20594;-82
2024/01/26 10:41:56;;;;;;;4.13;2.95;;;;;;;16.31;55.20;93753.75;2030734;70;20161;-82
2024/01/26 10:44:23;;;;;;;4.03;3.03;;;;;;;16.14;54.05;93739.97;2031889;70;20223;-82
2024/01/26 10:46:50;;;;;;;4.43;3.13;;;;;;;16.59;54.91;93725.41;2031876;70;20225;-82
2024/01/26 10:49:17;;;;;;;3.45;3.03;;;;;;;17.13;53.81;93721.94;2031571;70;20815;-82
2024/01/26 10:51:43;;;;;;;4.15;2.92;;;;;;;17.08;52.57;93696.75;2031751;70;20301;-82
2024/01/26 10:54:10;;;;;;;5.22;4.20;;;;;;;17.28;51.85;93707.09;2031823;70;20160;-82
2024/01/26 10:56:37;;;;;;;4.75;3.47;;;;;;;17.70;53.37;93704.97;2031831;70;20160;-83
2024/01/26 10:59:03;;;;;;;4.68;3.67;;;;;;;17.75;52.15;93698.13;2035053;70;20167;-83
2024/01/26 11:01:30;;;;;;;6.10;4.05;;;;;;;19.01;50.85;93691.25;2035154;70;20176;-86
2024/01/26 11:03:58;;;;;;;3.95;3.22;;;;;;;18.96;50.26;93681.03;2035088;70;20144;-83
2024/01/26 11:06:26;;;;;;;3.45;2.88;;;;;;;19.88;46.79;93688.63;2034999;70;20235;-76
2024/01/26 11:08:59;;;;;;;5.18;3.75;;;;;;;18.71;49.89;93687.75;2034961;70;20167;-82
2024/01/26 11:11:29;;;;;;;;;;;;;;;17.63;51.99;93685.34;2035218;70;20152;-83
2024/01/26 11:13:59;;;;;;;4.90;3.70;;;;;;;18.28;51.60;93660.81;2034774;70;20116;-81
2024/01/26 11:16:25;;;;;;;6.82;4.78;;;;;;;20.97;48.31;93662.94;2035041;70;20160;-82
2024/01/26 11:18:59;;;;;;;12.95;8.60;;;;;;;20.73;47.22;93665.59;2034969;70;20163;-82
2024/01/26 11:21:36;;;;;;;12.40;8.77;;;;;;;22.45;44.28;93657.28;2035144;70;20220;-80
2024/01/26 11:24:14;;;;;;;6.30;5.10;;;;;;;23.10;43.96;93647.84;2036137;70;20144;-80
2024/01/26 11:26:41;;;;;;;4.80;3.53;;;;;;;20.18;45.87;93625.53;2034921;70;20234;-80
2024/01/26 11:29:12;;;;;;;4.75;3.10;;;;;;;20.87;45.24;93618.91;2034762;70;20250;-80
2024/01/26 11:31:44;;;;;;;5.00;3.00;;;;;;;20.15;47.73;93621.13;2034821;70;20136;-81